Time;durP1;ratioP1;P1;durP2;ratioP2;P2;SDS_P1;SDS_P2;PMS_P1;PMS_P2;Temp;Humidity;BMP_temperature;BMP_pressure;BME280_temperature;BME280_humidity;BME280_pressure;Samples;Min_cycle;Max_cycle;Signal;HPM_P1;HPM_P2
2022/06/08 00:00:47;;;;;;;22.58;19.63;;;;;;;12.97;100.00;163956.81;5068779;28;20064;-60
2022/06/08 00:03:17;;;;;;;22.00;19.25;;;;;;;12.92;100.00;163943.28;5070813;28;20020;-61
2022/06/08 00:05:43;;;;;;;21.35;16.50;;;;;;;13.04;100.00;163973.03;5069177;28;20470;-61
2022/06/08 00:08:08;;;;;;;26.20;20.38;;;;;;;13.05;100.00;163975.75;5070570;28;20033;-60
2022/06/08 00:10:34;;;;;;;24.35;19.90;;;;;;;13.05;100.00;163977.06;5069245;28;20048;-61
2022/06/08 00:13:00;;;;;;;24.02;19.77;;;;;;;13.02;100.00;163969.00;5070285;28;20036;-61
2022/06/08 00:15:26;;;;;;;26.17;21.50;;;;;;;13.03;100.00;163971.66;5068571;28;20505;-60
2022/06/08 00:17:52;;;;;;;24.48;20.75;;;;;;;13.01;100.00;163967.63;5070221;28;20115;-60
2022/06/08 00:20:18;;;;;;;31.45;19.98;;;;;;;12.98;100.00;163959.53;5068984;28;20523;-61
2022/06/08 00:22:43;;;;;;;24.48;21.63;;;;;;;12.96;100.00;163954.13;5069938;28;20099;-61
2022/06/08 00:25:10;;;;;;;25.27;20.42;;;;;;;12.99;100.00;163962.19;5068562;28;20044;-60
2022/06/08 00:27:36;;;;;;;23.58;19.30;;;;;;;12.99;100.00;163962.19;5070137;28;20044;-61
2022/06/08 00:30:03;;;;;;;20.75;18.65;;;;;;;12.98;100.00;163959.53;5068668;28;20025;-61
2022/06/08 00:32:28;;;;;;;22.85;19.35;;;;;;;12.98;100.00;163959.53;5070262;28;20066;-61
2022/06/08 00:34:53;;;;;;;29.98;21.20;;;;;;;12.96;100.00;163954.13;5070121;28;20029;-61
2022/06/08 00:37:19;;;;;;;24.98;19.83;;;;;;;12.98;100.00;163959.53;5068062;28;20647;-61
2022/06/08 00:39:44;;;;;;;26.58;19.73;;;;;;;12.97;100.00;163956.81;5070372;28;20360;-61
2022/06/08 00:42:14;;;;;;;24.80;19.25;;;;;;;12.96;100.00;163952.72;5068587;28;20048;-60
2022/06/08 00:45:14;;;;;;;21.95;19.63;;;;;;;12.95;100.00;163951.41;5069979;28;20047;-60
2022/06/08 00:48:00;;;;;;;22.08;19.80;;;;;;;12.93;100.00;163945.97;5067105;28;20048;-60
2022/06/08 00:50:31;;;;;;;22.48;20.10;;;;;;;12.89;100.00;163933.81;5068828;28;20041;-60
2022/06/08 00:52:58;;;;;;;22.63;19.17;;;;;;;12.91;100.00;163940.63;5069342;28;20025;-60
2022/06/08 00:55:28;;;;;;;25.45;20.73;;;;;;;12.88;100.00;163932.47;5069299;28;20511;-60
2022/06/08 00:57:58;;;;;;;25.65;19.00;;;;;;;12.83;100.00;163918.97;5073984;28;20034;-60
2022/06/08 01:00:28;;;;;;;28.05;20.33;;;;;;;12.84;100.00;163921.69;5072428;28;20448;-60
2022/06/08 01:02:54;;;;;;;25.30;21.95;;;;;;;12.81;100.00;163913.56;5073722;28;20032;-60
2022/06/08 01:05:22;;;;;;;29.10;21.33;;;;;;;12.79;100.00;163909.53;5071747;28;20504;-60
2022/06/08 01:07:49;;;;;;;28.80;24.50;;;;;;;12.77;100.00;163902.75;5072532;28;20033;-60
2022/06/08 01:10:19;;;;;;;29.33;21.80;;;;;;;12.76;100.00;163900.06;5072867;28;20044;-60
2022/06/08 01:12:45;;;;;;;25.70;22.73;;;;;;;12.70;100.00;163886.50;5073701;28;20103;-60
2022/06/08 01:15:14;;;;;;;31.70;24.08;;;;;;;12.63;100.00;163867.59;5070659;28;20411;-60
2022/06/08 01:17:39;;;;;;;27.08;24.42;;;;;;;12.51;100.00;163836.50;5073362;28;20044;-60
2022/06/08 01:20:05;;;;;;;28.85;21.92;;;;;;;12.43;100.00;163813.53;5072123;28;20065;-60
2022/06/08 01:22:31;;;;;;;23.67;21.17;;;;;;;12.31;100.00;163783.84;5073292;28;20067;-60
2022/06/08 01:24:56;;;;;;;32.03;23.70;;;;;;;12.19;100.00;163751.38;5071421;28;20184;-60
2022/06/08 01:27:25;;;;;;;19.45;17.08;;;;;;;12.10;100.00;163727.09;5073609;28;20059;-61
2022/06/08 01:30:12;;;;;;;18.73;16.77;;;;;;;11.90;100.00;163675.69;5073280;28;20020;-61
2022/06/08 01:33:01;;;;;;;25.60;20.80;;;;;;;11.67;100.00;163616.22;5052129;28;20052;-61
2022/06/08 01:35:39;;;;;;;22.45;20.05;;;;;;;11.55;100.00;163585.16;5051846;28;20041;-61
2022/06/08 01:38:16;;;;;;;23.13;20.65;;;;;;;11.46;100.00;163560.91;5053825;28;20033;-61
2022/06/08 01:40:59;;;;;;;25.38;22.33;;;;;;;11.39;100.00;163543.31;5071972;28;20045;-60
2022/06/08 01:43:56;;;;;;;25.40;22.05;;;;;;;11.35;100.00;163532.53;5072917;28;20036;-60
2022/06/08 01:46:32;;;;;;;25.83;21.67;;;;;;;11.35;100.00;163532.53;5071717;28;20044;-62
2022/06/08 01:49:20;;;;;;;30.80;25.30;;;;;;;11.35;100.00;163531.16;5072901;28;20499;-62
2022/06/08 01:51:47;;;;;;;;;;;;;;;11.32;100.00;163524.41;5071203;28;20522;-62
2022/06/08 01:54:46;;;;;;;33.15;22.10;;;;;;;11.32;100.00;163524.41;5072947;28;19908;-62
2022/06/08 01:57:38;;;;;;;28.70;22.52;;;;;;;11.30;100.00;163517.66;5071472;28;20040;-61
2022/06/08 02:00:06;;;;;;;28.40;24.25;;;;;;;11.30;100.00;163517.66;5070874;28;20048;-62
2022/06/08 02:02:44;;;;;;;25.45;22.85;;;;;;;11.28;100.00;163513.63;5072893;28;20111;-61
2022/06/08 02:05:22;;;;;;;22.33;19.92;;;;;;;11.30;100.00;163519.00;5071174;28;20027;-62
2022/06/08 02:08:03;;;;;;;25.50;20.80;;;;;;;11.29;100.00;163514.97;5071665;28;20029;-62
2022/06/08 02:10:54;;;;;;;26.30;23.33;;;;;;;11.31;100.00;163520.38;5071441;28;20044;-61
2022/06/08 02:13:22;;;;;;;28.50;25.45;;;;;;;11.33;100.00;163527.13;5072497;28;20168;-60
2022/06/08 02:15:52;;;;;;;29.80;26.75;;;;;;;11.41;100.00;163547.34;5070717;28;20063;-59
2022/06/08 02:18:30;;;;;;;32.38;26.95;;;;;;;11.50;100.00;163570.34;5072600;28;20033;-60
2022/06/08 02:21:33;;;;;;;34.15;27.08;;;;;;;11.57;100.00;163589.25;5070669;28;20572;-60
2022/06/08 02:24:05;;;;;;;44.42;29.98;;;;;;;11.61;100.00;163598.72;5050823;28;20045;-60
2022/06/08 02:26:36;;;;;;;39.35;30.33;;;;;;;11.63;100.00;163605.47;5051100;28;20059;-60
2022/06/08 02:29:10;;;;;;;42.53;33.47;;;;;;;11.62;100.00;163602.75;5070111;28;20040;-61
2022/06/08 02:31:40;;;;;;;38.13;31.10;;;;;;;11.62;100.00;163602.75;5059255;28;20059;-61
2022/06/08 02:34:29;;;;;;;42.67;33.58;;;;;;;11.58;100.00;163591.91;5061903;28;20024;-61
2022/06/08 02:37:17;;;;;;;;;;;;;;;11.61;100.00;163600.03;5063783;28;20041;-61
2022/06/08 02:39:53;;;;;;;41.63;35.30;;;;;;;11.59;100.00;163594.63;5062428;28;19915;-61
2022/06/08 02:42:23;;;;;;;49.13;38.55;;;;;;;11.58;100.00;163591.91;5060982;28;20140;-61
2022/06/08 02:44:53;;;;;;;54.25;43.38;;;;;;;11.53;100.00;163578.41;5064333;28;20028;-61
2022/06/08 02:47:27;;;;;;;53.75;43.38;;;;;;;11.57;100.00;163589.25;5070455;28;20530;-61
2022/06/08 02:49:53;;;;;;;63.92;45.78;;;;;;;11.61;100.00;163600.03;5070526;28;20029;-61
2022/06/08 02:52:22;;;;;;;59.28;43.78;;;;;;;11.67;100.00;163614.91;5069156;28;20097;-60
2022/06/08 02:54:48;;;;;;;67.82;46.95;;;;;;;11.73;100.00;163632.44;5070944;28;20032;-60
2022/06/08 02:57:37;;;;;;;65.38;46.72;;;;;;;11.80;100.00;163650.03;5069677;28;20059;-60
2022/06/08 03:00:30;;;;;;;66.82;49.92;;;;;;;11.89;100.00;163672.97;5070116;28;20452;-63
2022/06/08 03:03:10;;;;;;;71.43;50.55;;;;;;;11.99;100.00;162053.16;5070724;28;20041;-60
2022/06/08 03:05:54;;;;;;;75.63;52.30;;;;;;;12.09;100.00;158425.41;5070051;28;20064;-60
2022/06/08 03:08:26;;;;;;;70.95;50.83;;;;;;;12.14;100.00;154888.97;5071625;28;20029;-60
2022/06/08 03:10:53;;;;;;;79.38;56.30;;;;;;;12.20;100.00;151369.78;5070018;28;20411;-60
2022/06/08 03:13:24;;;;;;;80.90;54.72;;;;;;;12.27;100.00;148205.94;5071518;28;20020;-60
2022/06/08 03:16:00;;;;;;;76.63;54.72;;;;;;;12.34;100.00;145396.84;5069089;28;20040;-60
2022/06/08 03:18:26;;;;;;;73.90;52.65;;;;;;;12.38;100.00;143642.88;5071244;28;20115;-60
2022/06/08 03:20:53;;;;;;;70.38;51.15;;;;;;;12.44;100.00;142596.09;5068814;28;20040;-60
2022/06/08 03:23:19;;;;;;;72.60;52.28;;;;;;;12.51;100.00;141906.84;5071348;28;20387;-60
2022/06/08 03:25:44;;;;;;;71.85;53.40;;;;;;;12.56;100.00;142271.31;5069649;28;20127;-60
2022/06/08 03:28:12;;;;;;;70.38;53.60;;;;;;;12.58;100.00;142276.00;5070895;28;20016;-60
2022/06/08 03:30:38;;;;;;;70.72;51.20;;;;;;;12.61;100.00;141930.16;5069766;28;20045;-60
2022/06/08 03:33:03;;;;;;;70.30;52.78;;;;;;;12.63;100.00;140876.31;5070958;28;20541;-60
2022/06/08 03:35:29;;;;;;;78.55;51.85;;;;;;;12.73;100.00;139486.06;5069317;28;20040;-60
2022/06/08 03:37:54;;;;;;;77.18;55.42;;;;;;;12.70;100.00;139128.78;5070847;28;20024;-60
2022/06/08 03:40:20;;;;;;;72.85;51.55;;;;;;;12.81;100.00;138798.91;5069708;28;20040;-58
2022/06/08 03:42:45;;;;;;;81.38;52.08;;;;;;;12.93;100.00;138826.22;5070215;28;20089;-59
2022/06/08 03:45:11;;;;;;;74.88;54.47;;;;;;;13.05;100.00;139557.00;5069537;28;20464;-59
2022/06/08 03:47:41;;;;;;;73.13;52.33;;;;;;;13.01;100.00;142374.09;5071247;28;20036;-61
2022/06/08 03:50:10;;;;;;;75.90;55.85;;;;;;;13.10;100.00;144159.00;5069208;28;20069;-60
2022/06/08 03:52:40;;;;;;;69.07;52.58;;;;;;;13.15;100.00;145232.22;5070571;28;20439;-61
2022/06/08 03:55:07;;;;;;;73.00;52.20;;;;;;;13.21;100.00;146658.25;5068673;28;20159;-60
2022/06/08 03:57:34;;;;;;;82.68;52.55;;;;;;;13.33;100.00;148103.28;5070008;28;20020;-61
2022/06/08 04:00:03;;;;;;;67.88;53.15;;;;;;;13.46;100.00;151318.47;5069163;28;20069;-60
2022/06/08 04:02:29;;;;;;;71.93;53.65;;;;;;;13.47;100.00;155218.28;5070646;28;20036;-60
2022/06/08 04:04:55;;;;;;;71.22;52.83;;;;;;;13.47;100.00;158147.78;5070100;28;20372;-60
2022/06/08 04:07:20;;;;;;;64.07;49.33;;;;;;;13.53;100.00;159151.59;5069402;28;20471;-60
2022/06/08 04:09:45;;;;;;;76.97;59.05;;;;;;;13.54;100.00;160432.41;5070507;28;20025;-60
2022/06/08 04:12:12;;;;;;;74.30;55.40;;;;;;;13.57;100.00;159899.63;5067883;28;20385;-63
2022/06/08 04:14:37;;;;;;;77.65;57.25;;;;;;;13.66;100.00;159657.25;5070697;28;20028;-62
2022/06/08 04:17:03;;;;;;;77.90;54.05;;;;;;;13.71;100.00;160607.84;5068691;28;20094;-57
2022/06/08 04:19:29;;;;;;;70.63;53.10;;;;;;;13.76;100.00;161428.41;5069970;28;20499;-62
2022/06/08 04:21:55;;;;;;;75.88;54.85;;;;;;;13.78;100.00;160817.78;5068633;28;20172;-62
2022/06/08 04:24:23;;;;;;;67.47;51.28;;;;;;;13.86;100.00;159462.94;5070061;28;20024;-62
2022/06/08 04:26:50;;;;;;;67.28;53.80;;;;;;;13.94;100.00;157947.31;5068257;28;20053;-62
2022/06/08 04:29:16;;;;;;;72.18;53.00;;;;;;;13.99;100.00;159139.31;5070440;28;20028;-62
2022/06/08 04:31:42;;;;;;;58.75;49.75;;;;;;;14.10;100.00;162322.66;5068613;28;20040;-62
2022/06/08 04:34:09;;;;;;;64.22;51.97;;;;;;;14.09;100.00;164248.94;5069944;28;20021;-62
2022/06/08 04:36:35;;;;;;;61.67;49.90;;;;;;;14.18;100.00;164271.94;5067888;28;20450;-62
2022/06/08 04:39:01;;;;;;;61.35;51.67;;;;;;;14.20;100.00;164278.69;5069888;28;20043;-62
2022/06/08 04:41:26;;;;;;;63.42;50.42;;;;;;;14.24;100.00;164289.53;5068314;28;20052;-62
2022/06/08 04:43:53;;;;;;;66.50;51.03;;;;;;;14.25;100.00;164292.25;5069956;28;20150;-62
2022/06/08 04:46:19;;;;;;;64.93;51.35;;;;;;;14.32;100.00;164308.47;5068877;28;20056;-62
2022/06/08 04:48:46;;;;;;;71.68;52.03;;;;;;;14.41;100.00;164332.78;5069622;28;20115;-61
2022/06/08 04:51:13;;;;;;;67.32;50.80;;;;;;;14.47;100.00;164347.69;5068993;28;20044;-62
2022/06/08 04:53:40;;;;;;;62.03;50.22;;;;;;;14.59;100.00;164381.53;5070173;28;20096;-62
2022/06/08 04:56:06;;;;;;;57.30;48.03;;;;;;;14.68;100.00;164403.22;5068070;28;20044;-62
2022/06/08 04:58:32;;;;;;;55.70;45.63;;;;;;;14.82;100.00;164441.13;5070236;28;20146;-62
2022/06/08 05:00:57;;;;;;;57.35;47.35;;;;;;;14.91;100.00;164464.09;5068500;28;20040;-62
2022/06/08 05:03:23;;;;;;;51.60;42.83;;;;;;;14.96;100.00;164477.69;5069635;28;20039;-62
2022/06/08 05:05:49;;;;;;;50.15;42.08;;;;;;;14.94;100.00;164472.25;5068425;28;20125;-62
2022/06/08 05:08:17;;;;;;;47.67;40.65;;;;;;;14.93;100.00;164468.19;5070047;28;20025;-62
2022/06/08 05:10:42;;;;;;;;;;;;;;;14.85;100.00;164449.25;5068959;28;20040;-62
2022/06/08 05:13:09;;;;;;;48.33;41.78;;;;;;;14.83;100.00;164443.84;5070001;28;20014;-62
2022/06/08 05:15:37;;;;;;;55.22;44.47;;;;;;;14.81;100.00;164438.41;5068678;28;20036;-62
2022/06/08 05:18:04;;;;;;;53.13;46.17;;;;;;;14.85;100.00;164449.25;5069458;28;20120;-62
2022/06/08 05:20:30;;;;;;;51.80;42.00;;;;;;;14.82;100.00;164441.13;5068537;28;20040;-62
2022/06/08 05:22:56;;;;;;;48.92;40.13;;;;;;;14.93;100.00;164468.19;5069544;28;20028;-62
2022/06/08 05:25:41;;;;;;;51.78;43.85;;;;;;;14.98;100.00;164481.72;5067978;28;20040;-62
2022/06/08 05:28:08;;;;;;;47.35;41.92;;;;;;;15.10;100.00;164514.19;5069428;28;20055;-62
2022/06/08 05:30:34;;;;;;;64.65;47.58;;;;;;;15.16;100.00;164530.41;5068367;28;20041;-62
2022/06/08 05:33:01;;;;;;;46.15;39.35;;;;;;;15.32;100.00;164571.03;5069290;28;20406;-62
2022/06/08 05:35:27;;;;;;;43.13;35.38;;;;;;;15.34;100.00;164576.47;5068651;28;20041;-60
2022/06/08 05:37:53;;;;;;;39.30;34.95;;;;;;;15.40;100.00;164592.69;5069351;28;20020;-59
2022/06/08 05:40:19;;;;;;;42.10;33.15;;;;;;;15.42;100.00;164598.13;5068211;28;20040;-59
2022/06/08 05:42:45;;;;;;;38.75;31.73;;;;;;;15.41;100.00;164595.41;5070428;28;20044;-59
2022/06/08 05:45:23;;;;;;;37.83;32.17;;;;;;;15.42;100.00;164598.13;5071302;28;20482;-57
2022/06/08 05:47:48;;;;;;;34.60;28.73;;;;;;;15.49;100.00;164617.06;5062811;28;20032;-57
2022/06/08 05:50:15;;;;;;;41.92;33.60;;;;;;;15.51;100.00;164622.50;5059677;28;20036;-57
2022/06/08 05:52:41;;;;;;;40.78;31.52;;;;;;;15.61;100.00;164646.84;5062004;28;20025;-57
2022/06/08 05:55:07;;;;;;;41.22;33.80;;;;;;;15.82;100.00;164703.69;5060625;28;20019;-56
2022/06/08 05:57:33;;;;;;;39.58;31.63;;;;;;;16.01;100.00;164752.53;5060834;28;20028;-57
2022/06/08 05:59:58;;;;;;;32.75;28.95;;;;;;;16.22;100.00;164806.69;5059904;28;20024;-56
2022/06/08 06:02:24;;;;;;;35.55;31.30;;;;;;;16.42;100.00;164860.84;5062241;28;20020;-57
2022/06/08 06:04:50;;;;;;;33.30;29.65;;;;;;;16.54;100.00;164890.66;5062734;28;20031;-57
2022/06/08 06:07:15;;;;;;;34.40;26.88;;;;;;;16.69;100.00;164929.94;5059770;28;20052;-58
2022/06/08 06:09:42;;;;;;;27.58;23.02;;;;;;;16.84;100.00;164969.25;5062488;28;20031;-57
2022/06/08 06:12:08;;;;;;;27.95;25.02;;;;;;;16.98;100.00;165007.22;5060815;28;20500;-57
2022/06/08 06:14:34;;;;;;;27.02;24.08;;;;;;;17.05;100.00;165026.19;5069957;28;20111;-57
2022/06/08 06:16:59;;;;;;;24.77;20.98;;;;;;;17.10;100.00;165039.72;5070688;28;20040;-57
2022/06/08 06:19:25;;;;;;;23.60;21.13;;;;;;;17.19;100.00;165061.41;5072521;28;20058;-56
2022/06/08 06:21:51;;;;;;;26.83;22.73;;;;;;;17.07;100.00;165031.63;5070989;28;20036;-57
2022/06/08 06:24:17;;;;;;;25.20;22.70;;;;;;;17.05;100.00;165026.19;5071757;28;20415;-57
2022/06/08 06:26:43;;;;;;;23.50;21.00;;;;;;;17.09;100.00;165037.00;5069201;28;20040;-58
2022/06/08 06:29:10;;;;;;;25.20;20.92;;;;;;;17.19;100.00;165061.41;5065961;28;20032;-57
2022/06/08 06:31:44;;;;;;;20.33;17.92;;;;;;;17.25;100.00;165079.06;5069388;28;20068;-57
2022/06/08 06:34:12;;;;;;;21.92;19.73;;;;;;;17.24;100.00;165074.94;5072382;28;20044;-57
2022/06/08 06:36:38;;;;;;;24.35;20.58;;;;;;;17.26;100.00;165080.38;5071012;28;20063;-57
2022/06/08 06:39:03;;;;;;;51.55;21.48;;;;;;;17.35;100.00;165104.78;5071539;28;20453;-57
2022/06/08 06:41:29;;;;;;;21.73;19.50;;;;;;;17.30;100.00;165091.25;5070647;28;20032;-57
2022/06/08 06:43:55;;;;;;;24.67;18.70;;;;;;;17.33;100.00;165099.34;5071905;28;20436;-57
2022/06/08 06:46:20;;;;;;;25.02;17.45;;;;;;;17.39;100.00;165115.59;5070637;28;20059;-57
2022/06/08 06:48:45;;;;;;;19.50;17.00;;;;;;;17.58;100.00;165164.44;5067385;28;20025;-57
2022/06/08 06:51:11;;;;;;;21.75;19.33;;;;;;;17.61;100.00;165172.53;5057525;28;20055;-57
2022/06/08 06:53:36;;;;;;;19.80;17.02;;;;;;;17.66;100.00;165186.13;5063878;28;20044;-57
2022/06/08 06:56:02;;;;;;;20.80;17.58;;;;;;;17.62;100.00;165175.25;5069331;28;20044;-57
2022/06/08 06:58:28;;;;;;;23.10;18.58;;;;;;;17.70;100.00;165196.94;5071901;28;20025;-57
2022/06/08 07:00:53;;;;;;;20.70;18.40;;;;;;;17.86;100.00;165237.59;5070254;28;20097;-57
2022/06/08 07:03:19;;;;;;;24.40;19.75;;;;;;;17.90;100.00;165249.81;5071317;28;20384;-57
2022/06/08 07:05:44;;;;;;;21.70;18.60;;;;;;;17.91;100.00;165251.16;5069770;28;20041;-57
2022/06/08 07:08:09;;;;;;;26.65;21.92;;;;;;;18.05;100.00;165289.22;5068460;28;20379;-57
2022/06/08 07:10:36;;;;;;;26.58;20.48;;;;;;;18.16;100.00;165317.69;5069823;28;20041;-57
2022/06/08 07:13:02;;;;;;;23.08;20.50;;;;;;;18.34;100.00;165365.13;5071370;28;20025;-57
2022/06/08 07:15:27;;;;;;;22.33;19.85;;;;;;;18.43;100.00;165386.81;5070339;28;20043;-57
2022/06/08 07:17:53;;;;;;;31.90;23.40;;;;;;;18.43;100.00;165386.81;5070581;28;20348;-57
2022/06/08 07:20:20;;;;;;;22.17;19.85;;;;;;;18.37;100.00;165373.22;5059139;28;20128;-57
2022/06/08 07:22:46;;;;;;;22.40;20.02;;;;;;;18.37;100.00;165373.22;5057590;28;20032;-57
2022/06/08 07:25:13;;;;;;;25.88;20.85;;;;;;;18.49;100.00;165403.09;5049431;28;20045;-57
2022/06/08 07:27:39;;;;;;;23.35;19.23;;;;;;;18.60;100.00;165432.91;5051455;28;20029;-57
2022/06/08 07:30:06;;;;;;;22.92;19.08;;;;;;;18.65;100.00;165446.44;5049775;28;20112;-57
2022/06/08 07:32:32;;;;;;;19.85;16.67;;;;;;;18.76;100.00;165473.59;5050963;28;20025;-57
2022/06/08 07:34:58;;;;;;;24.67;19.20;;;;;;;18.88;100.00;165506.13;5049664;28;20021;-56
2022/06/08 07:37:25;;;;;;;21.75;17.60;;;;;;;18.87;100.00;165503.47;5051122;28;20077;-57
2022/06/08 07:39:51;;;;;;;20.48;16.45;;;;;;;18.88;100.00;165506.13;5050581;28;20567;-57
2022/06/08 07:42:17;;;;;;;18.83;16.15;;;;;;;19.06;100.00;165552.31;5049757;28;20231;-57
2022/06/08 07:44:43;;;;;;;17.15;15.35;;;;;;;19.12;100.00;165568.59;5051490;28;20077;-58
2022/06/08 07:47:08;;;;;;;16.73;14.15;;;;;;;19.08;100.00;165559.09;5049360;28;20523;-57
2022/06/08 07:49:36;;;;;;;16.67;14.30;;;;;;;19.17;100.00;165583.50;5051009;28;20021;-57
2022/06/08 07:52:05;;;;;;;15.35;13.85;;;;;;;19.22;100.00;165594.34;5049385;28;20037;-57
2022/06/08 07:54:30;;;;;;;14.75;12.73;;;;;;;19.25;100.00;165603.84;5050641;28;20045;-57
2022/06/08 07:56:56;;;;;;;12.35;11.05;;;;;;;19.32;100.00;165622.84;5049172;28;20061;-57
2022/06/08 07:59:24;;;;;;;15.93;11.65;;;;;;;19.34;100.00;165628.28;5050768;28;20127;-57
2022/06/08 08:01:50;;;;;;;14.52;13.02;;;;;;;19.47;100.00;165660.88;5048777;28;20221;-57
2022/06/08 08:04:16;;;;;;;15.00;11.07;;;;;;;19.60;100.00;165696.13;5050716;28;20029;-57
2022/06/08 08:06:41;;;;;;;20.10;12.27;;;;;;;19.59;100.00;165693.41;5048727;28;20087;-57
2022/06/08 08:09:13;;;;;;;11.40;9.30;;;;;;;19.70;100.00;165720.53;5050224;28;20032;-57
2022/06/08 08:11:39;;;;;;;9.23;8.27;;;;;;;19.62;100.00;165701.53;5049392;28;20132;-57
2022/06/08 08:14:04;;;;;;;11.75;8.63;;;;;;;19.72;100.00;165725.97;5050371;28;20025;-57
2022/06/08 08:16:29;;;;;;;9.90;7.85;;;;;;;19.57;100.00;165687.97;5048819;28;20045;-57
2022/06/08 08:18:55;;;;;;;11.85;9.57;;;;;;;19.69;100.00;165717.84;5050308;28;20017;-57
2022/06/08 08:21:20;;;;;;;11.38;8.25;;;;;;;19.69;100.00;165717.84;5049187;28;20048;-57
2022/06/08 08:23:45;;;;;;;10.13;7.65;;;;;;;19.87;100.00;165766.72;5049884;28;20546;-57
2022/06/08 08:26:11;;;;;;;9.13;8.18;;;;;;;19.93;100.00;165781.66;5049003;28;20470;-57
2022/06/08 08:28:36;;;;;;;21.23;9.45;;;;;;;19.99;100.00;165796.59;5050708;28;20031;-57
2022/06/08 08:31:01;;;;;;;12.93;7.38;;;;;;;19.95;100.00;165788.44;5048512;28;20536;-57
2022/06/08 08:33:27;;;;;;;13.85;6.45;;;;;;;19.86;100.00;165764.00;5050469;28;20029;-56
2022/06/08 08:35:52;;;;;;;9.55;4.93;;;;;;;19.64;100.00;165706.97;5048558;28;20044;-57
2022/06/08 08:38:21;;;;;;;5.60;4.03;;;;;;;19.86;100.00;165762.66;5050088;28;20032;-57
2022/06/08 08:40:51;;;;;;;6.50;4.05;;;;;;;20.15;100.00;165838.66;5048978;28;20446;-57
2022/06/08 08:43:20;;;;;;;6.22;3.70;;;;;;;20.33;100.00;165887.50;5050149;28;20268;-57
2022/06/08 08:46:12;;;;;;;4.55;2.97;;;;;;;20.48;100.00;165925.56;5048681;28;20132;-57
2022/06/08 08:48:46;;;;;;;8.40;3.95;;;;;;;20.57;100.00;165951.34;5050072;28;20400;-57
2022/06/08 08:51:25;;;;;;;8.68;2.60;;;;;;;20.81;100.00;166012.47;5048851;28;20063;-57
2022/06/08 08:54:03;;;;;;;5.40;2.38;;;;;;;21.17;100.00;166108.91;5049904;28;20022;-57
2022/06/08 08:56:35;;;;;;;2.15;1.73;;;;;;;21.56;100.00;166212.06;5048719;28;20045;-58
2022/06/08 08:59:01;;;;;;;5.57;2.35;;;;;;;21.65;100.00;166233.84;5050247;28;20021;-57
2022/06/08 09:01:33;;;;;;;4.13;2.22;;;;;;;21.87;100.00;166293.63;5048674;28;20474;-57
2022/06/08 09:04:04;;;;;;;5.90;2.22;;;;;;;22.55;100.00;166470.31;5049725;28;20061;-57
2022/06/08 09:06:32;;;;;;;3.85;2.40;;;;;;;23.06;100.00;166606.22;5048970;28;20039;-57
2022/06/08 09:09:02;;;;;;;4.45;2.33;;;;;;;23.54;100.00;166731.34;5049540;28;20037;-58
2022/06/08 09:11:36;;;;;;;10.18;2.25;;;;;;;23.84;100.00;166811.56;5048876;28;20072;-57
2022/06/08 09:14:11;;;;;;;2.63;1.77;;;;;;;-146.58;100.00;69501.63;5049993;28;20131;-57
2022/06/08 09:16:40;;;;;;;4.78;2.15;;;;;;;23.57;100.00;166739.47;5049135;28;20123;-57
2022/06/08 09:19:36;;;;;;;8.32;2.80;;;;;;;23.13;100.00;166625.25;5053823;28;20032;-58
2022/06/08 09:22:04;;;;;;;2.75;2.42;;;;;;;23.06;100.00;166606.22;5051981;28;20067;-57
2022/06/08 09:24:35;;;;;;;3.60;2.28;;;;;;;22.90;100.00;166562.72;5053496;28;20550;-57
2022/06/08 09:27:27;;;;;;;3.72;2.35;;;;;;;22.78;100.00;166531.50;5052201;28;20079;-57
2022/06/08 09:29:58;;;;;;;2.75;2.55;;;;;;;22.65;100.00;166497.50;5053272;28;20453;-57
2022/06/08 09:32:52;;;;;;;2.30;1.80;;;;;;;22.24;100.00;166390.13;5032358;28;20037;-57
2022/06/08 09:35:17;;;;;;;4.45;2.65;;;;;;;21.92;100.00;166304.53;5024565;28;20037;-57
2022/06/08 09:37:44;;;;;;;3.90;3.05;;;;;;;21.99;100.00;166324.88;5053060;28;20031;-57
2022/06/08 09:40:36;;;;;;;18.45;2.53;;;;;;;21.93;100.00;166307.25;5052098;28;20033;-57
2022/06/08 09:43:21;;;;;;;7.65;2.30;;;;;;;22.19;100.00;166377.88;5052970;28;20071;-58
2022/06/08 09:45:49;;;;;;;6.25;3.15;;;;;;;22.12;100.00;166358.84;5051448;28;20416;-58
2022/06/08 09:51:39;;;;;;;2.25;2.10;;;;;;;21.52;100.00;166199.91;5051840;28;20056;-57
2022/06/08 09:54:29;;;;;;;10.70;2.85;;;;;;;21.22;100.00;166122.47;5053004;28;20044;-57
2022/06/08 09:57:20;;;;;;;2.80;2.60;;;;;;;20.97;100.00;166055.94;5051558;28;20040;-57
2022/06/08 10:00:17;;;;;;;5.00;2.58;;;;;;;20.98;100.00;166057.25;5052655;28;20021;-58
2022/06/08 10:02:56;;;;;;;10.88;5.00;;;;;;;20.98;100.00;166058.66;5051894;28;20124;-57
2022/06/08 10:05:34;;;;;;;6.07;2.50;;;;;;;21.30;100.00;166141.47;5051627;28;20044;-57
2022/06/08 10:08:14;;;;;;;15.73;2.97;;;;;;;22.01;100.00;166328.94;5052563;28;20431;-57
2022/06/08 10:11:34;;;;;;;5.82;2.05;;;;;;;22.49;100.00;166455.34;5062230;28;20074;-57
2022/06/08 10:14:04;;;;;;;2.92;1.70;;;;;;;22.44;100.00;166443.16;5067888;28;20039;-58
2022/06/08 10:16:38;;;;;;;14.63;2.75;;;;;;;22.36;100.00;166421.38;5071212;28;20124;-57
2022/06/08 10:19:08;;;;;;;5.07;1.67;;;;;;;22.26;100.00;166394.16;5072744;28;20036;-57
2022/06/08 10:21:40;;;;;;;4.22;2.35;;;;;;;22.32;100.00;166410.47;5070898;28;20093;-57
2022/06/08 10:24:15;;;;;;;5.93;2.05;;;;;;;22.48;100.00;166454.00;5071745;28;20389;-58
2022/06/08 10:26:48;;;;;;;8.75;3.28;;;;;;;22.64;100.00;166496.13;5071167;28;20044;-57
2022/06/08 10:29:21;;;;;;;7.75;1.92;;;;;;;22.74;100.00;166520.59;5065233;28;20478;-57
2022/06/08 10:32:15;;;;;;;7.03;1.92;;;;;;;22.95;100.00;166576.34;5070653;28;20472;-58
2022/06/08 10:34:41;;;;;;;4.93;1.90;;;;;;;23.11;100.00;166618.47;5070265;28;20025;-58
2022/06/08 10:37:18;;;;;;;2.13;1.40;;;;;;;23.29;100.00;166666.09;5062007;28;20098;-58
2022/06/08 10:39:47;;;;;;;6.00;1.90;;;;;;;23.04;100.00;166600.81;5061497;28;20104;-58
2022/06/08 10:42:39;;;;;;;4.63;1.67;;;;;;;22.80;100.00;166536.91;5064374;28;20037;-58
2022/06/08 10:45:31;;;;;;;5.22;1.50;;;;;;;23.13;100.00;166625.25;5052583;28;20066;-58
2022/06/08 10:48:14;;;;;;;3.75;1.60;;;;;;;23.38;100.00;166689.22;5063243;28;20402;-58
2022/06/08 10:50:44;;;;;;;6.82;1.65;;;;;;;23.48;100.00;166715.03;5070090;28;20055;-58
2022/06/08 10:56:23;;;;;;;5.88;2.05;;;;;;;23.55;100.00;166734.06;5070764;28;20043;-58
2022/06/08 10:59:06;;;;;;;6.80;2.50;;;;;;;23.39;100.00;166691.91;5071230;28;20067;-58
2022/06/08 11:01:49;;;;;;;5.13;1.88;;;;;;;23.48;100.00;166715.03;5067056;28;20132;-58
2022/06/08 11:04:27;;;;;;;6.32;1.92;;;;;;;23.43;100.00;166704.16;5071889;28;20090;-57
2022/06/08 11:07:07;;;;;;;4.90;1.88;;;;;;;23.40;100.00;166696.00;5069742;28;20067;-58
2022/06/08 11:09:32;;;;;;;6.85;2.30;;;;;;;23.43;100.00;166704.16;5071444;28;20032;-58
2022/06/08 11:12:13;;;;;;;3.78;2.08;;;;;;;23.25;100.00;166655.22;5064101;28;20127;-58
2022/06/08 11:14:48;;;;;;;6.90;3.13;;;;;;;23.35;100.00;166681.03;5051320;28;20391;-58
2022/06/08 11:17:25;;;;;;;7.25;2.65;;;;;;;23.30;100.00;166668.81;5050097;28;20040;-57
2022/06/08 11:20:13;;;;;;;7.38;2.80;;;;;;;23.50;100.00;166721.84;5051304;28;20115;-58
2022/06/08 11:22:52;;;;;;;6.88;1.75;;;;;;;23.17;100.00;166633.41;5052980;28;20049;-58
2022/06/08 11:25:28;;;;;;;6.53;2.80;;;;;;;23.34;100.00;166679.72;5050062;28;20048;-58
2022/06/08 11:28:26;;;;;;;11.90;2.83;;;;;;;23.31;100.00;166671.53;5050839;28;20032;-58
2022/06/08 11:30:53;;;;;;;8.07;3.08;;;;;;;22.85;100.00;166549.13;5045303;28;20602;-58